createdAt,value
2023-04-12T09:52:18.581Z,100.00
2023-04-12T09:54:48.714Z,100.00
2023-04-12T09:57:17.755Z,100.00
2023-04-12T09:59:52.435Z,100.00
2023-04-12T10:02:27.062Z,100.00
2023-04-12T10:04:55.708Z,100.00
2023-04-12T10:07:27.500Z,100.00
2023-04-12T10:12:54.354Z,100.00
2023-04-12T10:15:28.101Z,100.00
2023-04-12T10:18:07.144Z,100.00
2023-04-12T10:20:35.269Z,100.00
2023-04-12T10:23:06.225Z,100.00
2023-04-12T10:25:34.719Z,100.00
2023-04-12T10:28:19.283Z,100.00
2023-04-12T10:30:51.248Z,100.00
2023-04-12T10:33:33.490Z,100.00
2023-04-12T10:36:11.483Z,100.00
2023-04-12T10:39:07.731Z,100.00
2023-04-12T10:41:36.396Z,100.00
2023-04-12T10:44:25.712Z,100.00
2023-04-12T10:46:53.637Z,100.00
2023-04-12T10:49:22.305Z,100.00
2023-04-12T10:52:05.334Z,100.00
2023-04-12T10:54:36.880Z,100.00
2023-04-12T10:57:08.470Z,100.00
2023-04-12T10:59:59.673Z,100.00
2023-04-12T11:02:28.147Z,100.00
2023-04-12T11:05:10.362Z,100.00
2023-04-12T11:07:57.373Z,100.00
2023-04-12T11:11:06.194Z,100.00
2023-04-12T11:13:39.155Z,100.00
2023-04-12T11:16:13.321Z,100.00
2023-04-12T11:18:42.865Z,100.00
2023-04-12T11:21:11.019Z,100.00
2023-04-12T11:23:41.447Z,100.00
2023-04-12T11:26:10.934Z,100.00
2023-04-12T11:28:39.443Z,100.00
2023-04-12T11:31:08.872Z,100.00
2023-04-12T11:33:41.631Z,100.00
2023-04-12T11:36:12.939Z,100.00
2023-04-12T11:38:41.535Z,100.00
2023-04-12T11:41:10.383Z,100.00
2023-04-12T11:43:38.985Z,100.00
2023-04-12T11:46:07.355Z,100.00
2023-04-12T11:48:38.588Z,100.00
2023-04-12T11:51:22.593Z,99.98
2023-04-12T11:53:57.570Z,99.85
2023-04-12T11:56:27.527Z,98.88
2023-04-12T11:58:55.712Z,98.59
2023-04-12T12:01:24.246Z,99.06
2023-04-12T12:03:52.914Z,97.83
2023-04-12T12:06:21.774Z,98.57
2023-04-12T12:08:51.738Z,99.40
2023-04-12T12:11:21.983Z,99.58
2023-04-12T12:13:51.289Z,99.61
2023-04-12T12:16:21.621Z,99.58
2023-04-12T12:18:52.549Z,99.45
2023-04-12T12:21:21.934Z,99.19
2023-04-12T12:23:50.068Z,99.88
2023-04-12T12:26:22.106Z,98.79
2023-04-12T12:28:51.879Z,98.83
2023-04-12T12:31:21.806Z,98.68
2023-04-12T12:33:55.246Z,98.55
2023-04-12T12:36:33.769Z,97.74
2023-04-12T12:39:10.998Z,97.70
2023-04-12T12:41:39.865Z,97.16
2023-04-12T12:44:08.833Z,96.80
2023-04-12T12:49:08.014Z,96.85
2023-04-12T12:51:37.595Z,95.58
2023-04-12T12:54:05.660Z,95.36
2023-04-12T12:56:37.175Z,95.53
2023-04-12T12:59:05.425Z,94.40
2023-04-12T13:01:33.750Z,95.16
2023-04-12T13:04:01.924Z,94.91
2023-04-12T13:06:32.509Z,94.71
2023-04-12T13:09:01.372Z,94.18
2023-04-12T13:11:33.098Z,93.77
2023-04-12T13:14:02.691Z,93.81
2023-04-12T13:16:30.994Z,93.94
2023-04-12T13:18:59.525Z,93.85
2023-04-12T13:21:30.179Z,93.37
2023-04-12T13:24:03.345Z,92.93
2023-04-12T13:26:32.643Z,92.66
2023-04-12T13:29:01.576Z,92.89
2023-04-12T13:31:36.462Z,92.59
2023-04-12T13:34:04.560Z,93.16
2023-04-12T13:36:33.279Z,93.17
2023-04-12T13:39:01.167Z,93.46
2023-04-12T13:41:31.924Z,93.27
2023-04-12T13:43:59.971Z,92.13
2023-04-12T13:46:28.987Z,92.05
2023-04-12T13:48:58.261Z,92.07
2023-04-12T13:51:26.917Z,92.46
2023-04-12T13:53:58.140Z,92.24
2023-04-12T13:56:28.818Z,91.40
2023-04-12T13:58:59.685Z,91.90
2023-04-12T14:01:27.932Z,90.74
2023-04-12T14:03:57.270Z,90.46
2023-04-12T14:06:25.077Z,90.29
2023-04-12T14:08:53.421Z,89.83
2023-04-12T14:11:23.666Z,88.76
2023-04-12T14:13:51.593Z,88.39
2023-04-12T14:16:24.447Z,89.21
2023-04-12T14:18:53.312Z,89.79
2023-04-12T14:21:22.900Z,89.68
2023-04-12T14:23:53.282Z,89.63
2023-04-12T14:26:22.145Z,89.81
2023-04-12T14:28:50.366Z,90.05
2023-04-12T14:31:18.335Z,89.61
2023-04-12T14:33:48.273Z,89.63
2023-04-12T14:36:17.074Z,91.13
2023-04-12T14:38:46.380Z,91.81
2023-04-12T14:41:17.950Z,90.71
2023-04-12T14:43:46.786Z,90.89
2023-04-12T14:46:15.012Z,90.43
2023-04-12T14:48:44.705Z,91.03
2023-04-12T14:51:12.808Z,91.00
2023-04-12T14:53:43.368Z,90.87
2023-04-12T14:56:29.830Z,91.09
2023-04-12T14:59:06.468Z,91.00
2023-04-12T15:01:35.197Z,89.84
2023-04-12T15:04:04.612Z,89.93
2023-04-12T15:06:42.596Z,90.71
2023-04-12T15:09:10.770Z,90.53
2023-04-12T15:11:41.225Z,90.49
2023-04-12T15:14:10.230Z,90.15
2023-04-12T15:16:43.124Z,89.82
2023-04-12T15:19:18.479Z,89.41
2023-04-12T15:21:55.472Z,89.32
2023-04-12T15:24:28.436Z,89.40
2023-04-12T15:26:56.864Z,89.37
2023-04-12T15:29:26.964Z,89.35
2023-04-12T15:31:56.910Z,89.93
2023-04-12T15:34:25.519Z,89.09
2023-04-12T15:36:53.642Z,89.55
2023-04-12T15:39:29.032Z,90.64
2023-04-12T15:41:56.954Z,90.62
2023-04-12T15:44:27.312Z,90.24
2023-04-12T15:47:10.500Z,89.57
2023-04-12T15:49:43.066Z,89.25
2023-04-12T15:52:12.191Z,89.49
2023-04-12T15:54:43.873Z,88.62
2023-04-12T15:57:12.381Z,89.45
2023-04-12T15:59:42.350Z,88.96
2023-04-12T16:02:15.390Z,88.17
2023-04-12T16:04:43.868Z,88.91
2023-04-12T16:07:11.848Z,88.17
2023-04-12T16:09:40.829Z,87.84
2023-04-12T16:12:09.189Z,88.18
2023-04-12T16:14:42.081Z,88.07
2023-04-12T16:17:14.966Z,88.55
2023-04-12T16:19:44.864Z,88.78
2023-04-12T16:22:15.856Z,88.47
2023-04-12T16:24:45.749Z,88.15
2023-04-12T16:27:14.689Z,88.78
2023-04-12T16:29:42.970Z,88.35
2023-04-12T16:32:15.142Z,88.41
2023-04-12T16:34:48.988Z,88.61
2023-04-12T16:37:21.413Z,88.32
2023-04-12T16:39:53.450Z,88.30
2023-04-12T16:42:24.818Z,88.16
2023-04-12T16:44:53.161Z,88.26
2023-04-12T16:47:22.100Z,89.05
2023-04-12T16:49:50.619Z,89.37
2023-04-12T16:52:19.262Z,89.09
2023-04-12T16:54:48.379Z,88.29
2023-04-12T16:57:18.125Z,88.52
2023-04-12T16:59:48.535Z,88.07
2023-04-12T17:02:20.263Z,88.49
2023-04-12T17:04:50.696Z,88.34
2023-04-12T17:07:19.114Z,88.02
2023-04-12T17:09:48.691Z,87.92
2023-04-12T17:12:16.778Z,87.73
2023-04-12T17:14:45.719Z,87.84
2023-04-12T17:17:15.647Z,87.88
2023-04-12T17:19:44.961Z,88.22
2023-04-12T17:22:12.786Z,88.28
2023-04-12T17:24:44.733Z,87.83
2023-04-12T17:27:13.217Z,87.93
2023-04-12T17:29:41.226Z,87.25
2023-04-12T17:32:09.377Z,87.40
2023-04-12T17:34:42.528Z,87.26
2023-04-12T17:37:11.027Z,87.32
2023-04-12T17:39:39.060Z,87.43
2023-04-12T17:42:07.326Z,87.60
2023-04-12T17:44:35.742Z,87.51
2023-04-12T17:47:07.658Z,87.08
2023-04-12T17:49:36.356Z,87.36
2023-04-12T17:52:04.600Z,87.58
2023-04-12T17:54:34.603Z,87.46
2023-04-12T17:57:03.873Z,87.78
2023-04-12T17:59:32.060Z,87.83
2023-04-12T18:02:04.356Z,87.34
2023-04-12T18:04:32.428Z,87.54
2023-04-12T18:07:00.347Z,86.63
2023-04-12T18:09:28.688Z,86.85
2023-04-12T18:11:57.792Z,86.87
2023-04-12T18:14:25.892Z,86.68
2023-04-12T18:16:55.359Z,86.45
2023-04-12T18:19:23.332Z,86.21
2023-04-12T18:21:51.897Z,87.00
2023-04-12T18:24:20.061Z,87.60
2023-04-12T18:26:47.976Z,88.01
2023-04-12T18:29:17.801Z,87.59
2023-04-12T18:31:46.076Z,87.01
2023-04-12T18:34:14.439Z,87.15
2023-04-12T18:36:43.090Z,87.25
2023-04-12T18:39:11.406Z,86.93
2023-04-12T18:41:41.272Z,87.33
2023-04-12T18:44:09.530Z,87.40
2023-04-12T18:46:37.748Z,87.25
2023-04-12T18:49:08.406Z,87.09
2023-04-12T18:51:36.434Z,87.39
2023-04-12T18:54:05.399Z,87.15
2023-04-12T18:56:34.390Z,86.36
2023-04-12T18:59:03.872Z,86.07
2023-04-12T19:01:35.771Z,86.23
2023-04-12T19:04:04.670Z,86.46
2023-04-12T19:06:33.215Z,86.64
2023-04-12T19:09:01.765Z,87.20
2023-04-12T19:11:30.364Z,87.20
2023-04-12T19:14:00.074Z,87.08
2023-04-12T19:16:28.635Z,87.02
2023-04-12T19:19:04.680Z,86.79
2023-04-12T19:21:33.927Z,86.42
2023-04-12T19:24:01.985Z,86.02
2023-04-12T19:26:31.975Z,86.00
2023-04-12T19:28:59.828Z,86.49
2023-04-12T19:31:35.288Z,86.49
2023-04-12T19:34:05.719Z,86.17
2023-04-12T19:36:33.452Z,85.98
2023-04-12T19:39:02.028Z,85.72
2023-04-12T19:41:30.016Z,85.80
2023-04-12T19:43:58.341Z,85.37
2023-04-12T19:46:28.981Z,84.90
2023-04-12T19:48:58.573Z,84.63
2023-04-12T19:51:31.404Z,84.23
2023-04-12T19:56:55.247Z,83.95
2023-04-12T19:59:44.155Z,84.34
2023-04-12T20:02:13.987Z,84.48
2023-04-12T20:04:43.559Z,84.13
2023-04-12T20:07:12.980Z,83.50
2023-04-12T20:09:45.131Z,83.58
2023-04-12T20:12:16.750Z,83.26
2023-04-12T20:14:49.534Z,83.66
2023-04-12T20:17:19.392Z,83.40
2023-04-12T20:19:48.630Z,83.33
2023-04-12T20:22:22.534Z,83.33
2023-04-12T20:24:57.986Z,83.27
2023-04-12T20:27:30.355Z,83.81
2023-04-12T20:30:06.752Z,84.00
2023-04-12T20:33:02.040Z,84.43
2023-04-12T20:35:33.879Z,84.15
2023-04-12T20:38:03.582Z,84.13
2023-04-12T20:43:23.742Z,83.81
2023-04-12T20:52:17.671Z,84.93
2023-04-12T20:54:48.606Z,84.76
2023-04-12T20:57:19.975Z,84.85
2023-04-12T20:59:51.826Z,85.26
2023-04-12T21:02:21.470Z,85.58
2023-04-12T21:04:51.270Z,85.49
2023-04-12T21:07:30.726Z,85.85
2023-04-12T21:10:05.445Z,85.85
2023-04-12T21:12:52.201Z,86.23
2023-04-12T21:15:28.985Z,86.01
2023-04-12T21:17:58.849Z,86.18
2023-04-12T21:20:31.118Z,85.85
2023-04-12T21:22:59.968Z,85.68
2023-04-12T21:25:29.147Z,86.47
2023-04-12T21:27:57.575Z,86.71
2023-04-12T21:30:26.565Z,86.65
2023-04-12T21:32:57.142Z,86.83
2023-04-12T21:35:26.621Z,87.21
2023-04-12T21:37:56.587Z,87.23
2023-04-12T21:40:27.494Z,87.39
2023-04-12T21:42:57.833Z,87.72
2023-04-12T21:45:29.413Z,87.48
2023-04-12T21:48:01.662Z,87.28
2023-04-12T21:50:33.167Z,87.10
2023-04-12T21:53:06.197Z,87.52
2023-04-12T21:55:34.487Z,88.06
2023-04-12T21:58:04.318Z,87.50
2023-04-12T22:00:37.262Z,87.47
2023-04-12T22:03:07.280Z,87.08
2023-04-12T22:05:36.728Z,88.30
2023-04-12T22:08:11.593Z,88.14
2023-04-12T22:10:40.650Z,88.71
2023-04-12T22:13:11.400Z,89.92
2023-04-12T22:15:45.920Z,88.58
2023-04-12T22:18:18.309Z,88.13
2023-04-12T22:20:48.282Z,87.55
2023-04-12T22:23:25.732Z,88.09
2023-04-12T22:25:58.719Z,89.60
2023-04-12T22:28:34.293Z,89.96
2023-04-12T22:31:10.563Z,89.24
2023-04-12T22:33:47.816Z,89.37
2023-04-12T22:36:19.231Z,89.48
2023-04-12T22:38:49.547Z,89.61
2023-04-12T22:41:28.762Z,90.30
2023-04-12T22:44:03.553Z,90.72
2023-04-12T22:46:33.437Z,91.28
2023-04-12T22:49:02.350Z,91.96
2023-04-12T22:51:33.971Z,91.88
2023-04-12T22:54:03.221Z,92.13
2023-04-12T22:56:34.700Z,92.79
2023-04-12T22:59:04.489Z,93.32
2023-04-12T23:01:33.391Z,92.93
2023-04-12T23:04:06.726Z,93.53
2023-04-12T23:06:40.462Z,93.93
2023-04-12T23:09:10.901Z,95.61
2023-04-12T23:11:40.375Z,96.27
2023-04-12T23:14:18.088Z,95.82
2023-04-12T23:16:46.524Z,96.94
2023-04-12T23:19:15.058Z,96.59
2023-04-12T23:21:45.950Z,96.51
2023-04-12T23:24:18.847Z,96.71
2023-04-12T23:26:47.717Z,96.80
2023-04-12T23:29:20.058Z,96.73
2023-04-12T23:31:48.912Z,96.54
2023-04-12T23:34:19.413Z,96.77
2023-04-12T23:36:50.501Z,96.50
2023-04-12T23:39:19.659Z,96.36
2023-04-12T23:41:49.913Z,97.21
2023-04-12T23:44:29.612Z,96.82
2023-04-12T23:47:12.754Z,96.52
2023-04-12T23:49:41.530Z,96.51
2023-04-12T23:52:37.366Z,97.19
2023-04-12T23:55:07.283Z,96.99
2023-04-12T23:57:38.105Z,96.60
